sensor_id;sensor_type;location;lat;lon;timestamp;pressure;altitude;pressure_sealevel;temperature;humidity
72226;BME280;60130;52.250;5.048;2023-08-01T00:00:00;999.2;;;16.4;87.1
72226;BME280;60130;52.250;5.048;2023-08-01T00:05:00;999.1;;;16.3;87.4
72226;BME280;60130;52.250;5.048;2023-08-01T00:10:00;999.1;;;16.4;87.4
72226;BME280;60130;52.250;5.048;2023-08-01T00:15:00;999.1;;;16.3;87.7
72226;BME280;60130;52.250;5.048;2023-08-01T00:20:01;999.1;;;16.2;88.4
72226;BME280;60130;52.250;5.048;2023-08-01T00:25:00;999.1;;;16.2;88.6
72226;BME280;60130;52.250;5.048;2023-08-01T00:30:00;999.0;;;16.2;89.1
72226;BME280;60130;52.250;5.048;2023-08-01T00:35:00;998.9;;;16.2;88.8
72226;BME280;60130;52.250;5.048;2023-08-01T00:40:00;998.8;;;16.2;89.2
72226;BME280;60130;52.250;5.048;2023-08-01T00:45:00;998.7;;;16.2;89.2
72226;BME280;60130;52.250;5.048;2023-08-01T00:50:00;998.6;;;16.2;89.1
72226;BME280;60130;52.250;5.048;2023-08-01T00:55:00;998.5;;;16.0;89.5
72226;BME280;60130;52.250;5.048;2023-08-01T01:00:00;998.4;;;16.1;89.5
72226;BME280;60130;52.250;5.048;2023-08-01T01:05:01;998.4;;;16.1;89.4
72226;BME280;60130;52.250;5.048;2023-08-01T01:10:00;998.4;;;16.0;89.4
72226;BME280;60130;52.250;5.048;2023-08-01T01:15:00;998.4;;;16.0;89.3
72226;BME280;60130;52.250;5.048;2023-08-01T01:20:00;998.4;;;15.9;89.4
72226;BME280;60130;52.250;5.048;2023-08-01T01:25:01;998.4;;;16.0;89.4
72226;BME280;60130;52.250;5.048;2023-08-01T01:30:00;998.4;;;16.0;89.3
72226;BME280;60130;52.250;5.048;2023-08-01T01:35:02;998.4;;;15.9;89.5
72226;BME280;60130;52.250;5.048;2023-08-01T01:40:00;998.4;;;15.9;89.5
72226;BME280;60130;52.250;5.048;2023-08-01T01:45:00;998.3;;;15.9;89.3
72226;BME280;60130;52.250;5.048;2023-08-01T01:50:00;998.3;;;15.9;89.1
72226;BME280;60130;52.250;5.048;2023-08-01T01:55:00;998.3;;;15.9;89.0
72226;BME280;60130;52.250;5.048;2023-08-01T02:00:00;998.3;;;16.0;89.0
72226;BME280;60130;52.250;5.048;2023-08-01T02:05:00;998.3;;;16.0;89.2
72226;BME280;60130;52.250;5.048;2023-08-01T02:10:00;998.3;;;16.1;89.1
72226;BME280;60130;52.250;5.048;2023-08-01T02:15:00;998.3;;;16.1;89.0
72226;BME280;60130;52.250;5.048;2023-08-01T02:20:00;998.4;;;16.2;89.0
72226;BME280;60130;52.250;5.048;2023-08-01T02:25:00;998.3;;;16.2;89.3
72226;BME280;60130;52.250;5.048;2023-08-01T02:30:00;998.2;;;16.2;89.6
72226;BME280;60130;52.250;5.048;2023-08-01T02:35:00;998.2;;;16.1;89.8
72226;BME280;60130;52.250;5.048;2023-08-01T02:40:02;998.2;;;16.1;89.9
72226;BME280;60130;52.250;5.048;2023-08-01T02:45:00;998.2;;;16.1;90.3
72226;BME280;60130;52.250;5.048;2023-08-01T02:50:00;998.2;;;16.0;90.8
72226;BME280;60130;52.250;5.048;2023-08-01T02:55:00;998.1;;;16.0;90.7
72226;BME280;60130;52.250;5.048;2023-08-01T03:00:00;998.1;;;16.2;90.4
72226;BME280;60130;52.250;5.048;2023-08-01T03:05:00;998.2;;;16.2;90.2
72226;BME280;60130;52.250;5.048;2023-08-01T03:10:00;998.2;;;16.3;90.1
72226;BME280;60130;52.250;5.048;2023-08-01T03:15:00;998.1;;;16.3;90.0
72226;BME280;60130;52.250;5.048;2023-08-01T03:20:00;998.1;;;16.2;89.8
72226;BME280;60130;52.250;5.048;2023-08-01T03:25:00;998.2;;;16.3;89.9
72226;BME280;60130;52.250;5.048;2023-08-01T03:30:00;998.2;;;16.2;89.9
72226;BME280;60130;52.250;5.048;2023-08-01T03:35:00;998.1;;;16.2;90.0
72226;BME280;60130;52.250;5.048;2023-08-01T03:40:00;998.2;;;16.2;89.8
72226;BME280;60130;52.250;5.048;2023-08-01T03:45:00;998.1;;;16.3;89.9
72226;BME280;60130;52.250;5.048;2023-08-01T03:50:00;998.2;;;16.3;90.1
72226;BME280;60130;52.250;5.048;2023-08-01T03:55:00;998.2;;;16.4;90.0
72226;BME280;60130;52.250;5.048;2023-08-01T04:00:00;998.2;;;16.6;89.7
72226;BME280;60130;52.250;5.048;2023-08-01T04:05:00;998.3;;;16.7;89.5
72226;BME280;60130;52.250;5.048;2023-08-01T04:10:00;998.2;;;16.7;89.3
72226;BME280;60130;52.250;5.048;2023-08-01T04:15:00;998.2;;;16.8;89.3
72226;BME280;60130;52.250;5.048;2023-08-01T04:20:00;998.2;;;16.8;89.0
72226;BME280;60130;52.250;5.048;2023-08-01T04:25:00;998.2;;;16.8;88.3
72226;BME280;60130;52.250;5.048;2023-08-01T04:30:00;998.1;;;16.9;87.6
72226;BME280;60130;52.250;5.048;2023-08-01T04:35:00;998.1;;;16.9;87.3
72226;BME280;60130;52.250;5.048;2023-08-01T04:40:00;998.1;;;16.9;87.7
72226;BME280;60130;52.250;5.048;2023-08-01T04:45:00;998.2;;;16.8;87.5
72226;BME280;60130;52.250;5.048;2023-08-01T04:50:00;998.3;;;16.6;88.8
72226;BME280;60130;52.250;5.048;2023-08-01T04:55:00;998.3;;;16.6;89.2
72226;BME280;60130;52.250;5.048;2023-08-01T05:00:00;998.3;;;16.6;89.2
72226;BME280;60130;52.250;5.048;2023-08-01T05:05:00;998.3;;;16.7;89.1
72226;BME280;60130;52.250;5.048;2023-08-01T05:10:00;998.3;;;16.9;88.6
72226;BME280;60130;52.250;5.048;2023-08-01T05:15:00;998.3;;;16.9;88.4
72226;BME280;60130;52.250;5.048;2023-08-01T05:20:00;998.3;;;17.0;87.5
72226;BME280;60130;52.250;5.048;2023-08-01T05:25:00;998.3;;;17.0;87.3
72226;BME280;60130;52.250;5.048;2023-08-01T05:30:00;998.3;;;17.0;86.7
72226;BME280;60130;52.250;5.048;2023-08-01T05:35:00;998.3;;;17.0;86.7
72226;BME280;60130;52.250;5.048;2023-08-01T05:40:00;998.3;;;16.9;86.5
72226;BME280;60130;52.250;5.048;2023-08-01T05:45:00;998.3;;;16.9;86.4
72226;BME280;60130;52.250;5.048;2023-08-01T05:50:00;998.4;;;16.8;86.4
72226;BME280;60130;52.250;5.048;2023-08-01T05:55:00;998.5;;;16.8;86.5
72226;BME280;60130;52.250;5.048;2023-08-01T06:00:00;998.5;;;16.9;86.4
72226;BME280;60130;52.250;5.048;2023-08-01T06:05:00;998.6;;;17.0;86.6
72226;BME280;60130;52.250;5.048;2023-08-01T06:10:00;998.6;;;17.3;85.7
72226;BME280;60130;52.250;5.048;2023-08-01T06:15:00;998.6;;;17.5;84.6
72226;BME280;60130;52.250;5.048;2023-08-01T06:20:00;998.7;;;17.6;84.1
72226;BME280;60130;52.250;5.048;2023-08-01T06:25:00;998.7;;;17.9;82.7
72226;BME280;60130;52.250;5.048;2023-08-01T06:30:00;998.7;;;18.5;80.7
72226;BME280;60130;52.250;5.048;2023-08-01T06:35:00;998.8;;;18.6;79.5
72226;BME280;60130;52.250;5.048;2023-08-01T06:40:00;998.9;;;19.3;77.1
72226;BME280;60130;52.250;5.048;2023-08-01T06:45:00;998.8;;;18.8;77.9
72226;BME280;60130;52.250;5.048;2023-08-01T06:50:00;998.8;;;18.3;79.6
72226;BME280;60130;52.250;5.048;2023-08-01T06:55:00;998.7;;;18.3;79.3
72226;BME280;60130;52.250;5.048;2023-08-01T07:00:00;998.9;;;19.1;78.0
72226;BME280;60130;52.250;5.048;2023-08-01T07:05:00;998.8;;;20.1;73.9
72226;BME280;60130;52.250;5.048;2023-08-01T07:10:00;998.8;;;18.9;76.6
72226;BME280;60130;52.250;5.048;2023-08-01T07:15:00;999.0;;;18.8;79.1
72226;BME280;60130;52.250;5.048;2023-08-01T07:20:00;999.0;;;17.6;84.5
72226;BME280;60130;52.250;5.048;2023-08-01T07:25:00;999.0;;;17.1;85.5
72226;BME280;60130;52.250;5.048;2023-08-01T07:30:00;999.0;;;17.0;85.1
72226;BME280;60130;52.250;5.048;2023-08-01T07:35:00;999.1;;;19.3;80.0
72226;BME280;60130;52.250;5.048;2023-08-01T07:40:00;999.0;;;19.1;80.5
72226;BME280;60130;52.250;5.048;2023-08-01T07:45:00;999.0;;;18.4;82.7
72226;BME280;60130;52.250;5.048;2023-08-01T07:50:00;999.2;;;17.2;87.4
72226;BME280;60130;52.250;5.048;2023-08-01T07:55:00;999.1;;;16.2;89.2
72226;BME280;60130;52.250;5.048;2023-08-01T08:00:00;999.2;;;16.6;90.1
72226;BME280;60130;52.250;5.048;2023-08-01T08:05:00;999.2;;;17.1;89.3
72226;BME280;60130;52.250;5.048;2023-08-01T08:10:00;999.2;;;17.4;87.3
72226;BME280;60130;52.250;5.048;2023-08-01T08:15:00;999.3;;;17.3;84.8
72226;BME280;60130;52.250;5.048;2023-08-01T08:20:00;999.3;;;17.8;84.2
72226;BME280;60130;52.250;5.048;2023-08-01T08:25:00;999.3;;;18.6;81.7
72226;BME280;60130;52.250;5.048;2023-08-01T08:30:00;999.3;;;18.8;80.8
72226;BME280;60130;52.250;5.048;2023-08-01T08:35:00;999.3;;;19.1;79.9
72226;BME280;60130;52.250;5.048;2023-08-01T08:40:00;999.3;;;18.4;81.0
72226;BME280;60130;52.250;5.048;2023-08-01T08:45:01;999.4;;;18.1;80.1
72226;BME280;60130;52.250;5.048;2023-08-01T08:50:00;999.3;;;18.6;79.7
72226;BME280;60130;52.250;5.048;2023-08-01T08:55:01;999.5;;;18.7;78.3
72226;BME280;60130;52.250;5.048;2023-08-01T09:00:02;999.5;;;19.1;77.8
72226;BME280;60130;52.250;5.048;2023-08-01T09:05:00;999.5;;;18.9;77.7
72226;BME280;60130;52.250;5.048;2023-08-01T09:10:00;999.5;;;19.1;76.7
72226;BME280;60130;52.250;5.048;2023-08-01T09:15:00;999.6;;;19.5;76.6
72226;BME280;60130;52.250;5.048;2023-08-01T09:20:03;999.4;;;19.6;74.5
72226;BME280;60130;52.250;5.048;2023-08-01T09:25:00;999.7;;;19.8;73.6
72226;BME280;60130;52.250;5.048;2023-08-01T09:30:05;999.7;;;20.0;74.4
72226;BME280;60130;52.250;5.048;2023-08-01T09:35:00;999.8;;;19.8;74.1
72226;BME280;60130;52.250;5.048;2023-08-01T09:40:00;999.7;;;19.9;71.8
72226;BME280;60130;52.250;5.048;2023-08-01T09:45:00;999.8;;;20.3;70.6
72226;BME280;60130;52.250;5.048;2023-08-01T09:50:00;999.8;;;20.4;70.7
72226;BME280;60130;52.250;5.048;2023-08-01T09:55:00;999.8;;;20.3;71.4
72226;BME280;60130;52.250;5.048;2023-08-01T10:00:00;999.9;;;20.6;69.3
72226;BME280;60130;52.250;5.048;2023-08-01T10:05:01;999.9;;;20.7;70.8
72226;BME280;60130;52.250;5.048;2023-08-01T10:10:01;1000.0;;;20.7;69.5
72226;BME280;60130;52.250;5.048;2023-08-01T10:15:00;1000.0;;;19.8;69.7
72226;BME280;60130;52.250;5.048;2023-08-01T10:20:00;1000.0;;;20.1;70.7
72226;BME280;60130;52.250;5.048;2023-08-01T10:25:00;1000.0;;;20.9;68.8
72226;BME280;60130;52.250;5.048;2023-08-01T10:30:01;1000.0;;;20.6;70.0
72226;BME280;60130;52.250;5.048;2023-08-01T10:35:00;1000.1;;;21.0;67.4
72226;BME280;60130;52.250;5.048;2023-08-01T10:40:00;1000.2;;;20.8;68.6
72226;BME280;60130;52.250;5.048;2023-08-01T10:45:00;1000.2;;;21.2;68.0
72226;BME280;60130;52.250;5.048;2023-08-01T10:50:00;1000.2;;;20.5;68.9
72226;BME280;60130;52.250;5.048;2023-08-01T10:55:02;1000.3;;;20.6;71.3
72226;BME280;60130;52.250;5.048;2023-08-01T11:00:00;1000.2;;;21.2;67.2
72226;BME280;60130;52.250;5.048;2023-08-01T11:05:01;1000.5;;;20.9;67.3
72226;BME280;60130;52.250;5.048;2023-08-01T11:10:05;1000.4;;;21.3;66.9
72226;BME280;60130;52.250;5.048;2023-08-01T11:15:00;1000.3;;;20.9;67.9
72226;BME280;60130;52.250;5.048;2023-08-01T11:20:01;1000.5;;;20.6;66.8
72226;BME280;60130;52.250;5.048;2023-08-01T11:25:00;1000.5;;;20.6;67.9
72226;BME280;60130;52.250;5.048;2023-08-01T11:30:00;1000.6;;;20.3;68.1
72226;BME280;60130;52.250;5.048;2023-08-01T11:35:00;1000.7;;;20.2;67.6
72226;BME280;60130;52.250;5.048;2023-08-01T11:40:00;1000.6;;;20.5;65.9
72226;BME280;60130;52.250;5.048;2023-08-01T11:45:08;1000.6;;;21.6;65.0
72226;BME280;60130;52.250;5.048;2023-08-01T11:50:00;1000.6;;;21.1;65.0
72226;BME280;60130;52.250;5.048;2023-08-01T11:55:00;1000.7;;;20.7;65.3
72226;BME280;60130;52.250;5.048;2023-08-01T12:00:00;1000.7;;;21.0;64.8
72226;BME280;60130;52.250;5.048;2023-08-01T12:05:00;1000.7;;;20.9;65.8
72226;BME280;60130;52.250;5.048;2023-08-01T12:10:00;1000.8;;;21.0;64.2
72226;BME280;60130;52.250;5.048;2023-08-01T12:15:00;1000.8;;;21.1;64.7
72226;BME280;60130;52.250;5.048;2023-08-01T12:20:00;1000.8;;;20.7;65.7
72226;BME280;60130;52.250;5.048;2023-08-01T12:25:00;1001.0;;;21.3;64.2
72226;BME280;60130;52.250;5.048;2023-08-01T12:30:00;1000.9;;;21.4;65.4
72226;BME280;60130;52.250;5.048;2023-08-01T12:35:00;1000.9;;;21.8;62.6
72226;BME280;60130;52.250;5.048;2023-08-01T12:40:00;1001.2;;;19.6;68.7
72226;BME280;60130;52.250;5.048;2023-08-01T12:45:00;1001.3;;;18.0;74.6
72226;BME280;60130;52.250;5.048;2023-08-01T12:50:00;1001.2;;;18.1;74.6
72226;BME280;60130;52.250;5.048;2023-08-01T12:55:00;1001.2;;;18.7;74.4
72226;BME280;60130;52.250;5.048;2023-08-01T13:00:00;1001.2;;;19.4;73.2
72226;BME280;60130;52.250;5.048;2023-08-01T13:05:00;1001.3;;;19.6;73.5
72226;BME280;60130;52.250;5.048;2023-08-01T13:10:00;1001.2;;;19.8;73.6
72226;BME280;60130;52.250;5.048;2023-08-01T13:15:00;1001.1;;;21.1;70.7
72226;BME280;60130;52.250;5.048;2023-08-01T13:20:00;1001.1;;;21.6;68.2
72226;BME280;60130;52.250;5.048;2023-08-01T13:25:00;1001.1;;;20.7;66.9
72226;BME280;60130;52.250;5.048;2023-08-01T13:30:00;1001.2;;;20.2;69.3
72226;BME280;60130;52.250;5.048;2023-08-01T13:35:00;1001.3;;;19.7;69.8
72226;BME280;60130;52.250;5.048;2023-08-01T13:40:00;1001.6;;;19.1;72.7
72226;BME280;60130;52.250;5.048;2023-08-01T13:45:00;1001.7;;;18.6;77.4
72226;BME280;60130;52.250;5.048;2023-08-01T13:50:00;1001.7;;;17.8;80.3
72226;BME280;60130;52.250;5.048;2023-08-01T13:55:00;1001.7;;;18.2;80.9
72226;BME280;60130;52.250;5.048;2023-08-01T14:00:00;1001.7;;;18.9;79.6
72226;BME280;60130;52.250;5.048;2023-08-01T14:05:00;1001.6;;;19.2;75.9
72226;BME280;60130;52.250;5.048;2023-08-01T14:10:00;1001.6;;;19.1;76.4
72226;BME280;60130;52.250;5.048;2023-08-01T14:15:00;1001.7;;;19.4;76.0
72226;BME280;60130;52.250;5.048;2023-08-01T14:20:00;1001.7;;;18.5;77.2
72226;BME280;60130;52.250;5.048;2023-08-01T14:25:00;1001.8;;;18.0;80.9
72226;BME280;60130;52.250;5.048;2023-08-01T14:30:01;1002.0;;;17.2;83.9
72226;BME280;60130;52.250;5.048;2023-08-01T14:35:00;1002.0;;;16.5;86.3
72226;BME280;60130;52.250;5.048;2023-08-01T14:40:00;1002.1;;;16.5;86.8
72226;BME280;60130;52.250;5.048;2023-08-01T14:45:00;1002.0;;;16.9;85.4
72226;BME280;60130;52.250;5.048;2023-08-01T14:50:01;1002.0;;;17.1;85.0
72226;BME280;60130;52.250;5.048;2023-08-01T14:55:00;1002.0;;;17.3;85.0
72226;BME280;60130;52.250;5.048;2023-08-01T15:00:00;1002.0;;;17.5;85.2
72226;BME280;60130;52.250;5.048;2023-08-01T15:05:00;1002.0;;;17.8;83.9
72226;BME280;60130;52.250;5.048;2023-08-01T15:10:00;1002.0;;;18.3;81.4
72226;BME280;60130;52.250;5.048;2023-08-01T15:15:00;1002.0;;;18.6;81.4
72226;BME280;60130;52.250;5.048;2023-08-01T15:20:01;1002.0;;;18.8;81.1
72226;BME280;60130;52.250;5.048;2023-08-01T15:25:00;1001.9;;;19.1;80.5
72226;BME280;60130;52.250;5.048;2023-08-01T15:30:00;1001.8;;;19.5;78.5
72226;BME280;60130;52.250;5.048;2023-08-01T15:35:00;1001.9;;;19.4;79.3
72226;BME280;60130;52.250;5.048;2023-08-01T15:40:00;1001.8;;;19.1;78.6
72226;BME280;60130;52.250;5.048;2023-08-01T15:45:00;1001.9;;;19.2;77.3
72226;BME280;60130;52.250;5.048;2023-08-01T15:50:00;1001.8;;;19.5;76.4
72226;BME280;60130;52.250;5.048;2023-08-01T15:55:00;1001.9;;;19.4;75.4
72226;BME280;60130;52.250;5.048;2023-08-01T16:00:00;1002.0;;;19.6;74.5
72226;BME280;60130;52.250;5.048;2023-08-01T16:05:00;1001.9;;;19.6;73.7
72226;BME280;60130;52.250;5.048;2023-08-01T16:10:00;1002.0;;;19.2;73.2
72226;BME280;60130;52.250;5.048;2023-08-01T16:15:00;1002.0;;;19.3;73.7
72226;BME280;60130;52.250;5.048;2023-08-01T16:20:00;1002.0;;;19.3;72.7
72226;BME280;60130;52.250;5.048;2023-08-01T16:25:00;1002.0;;;19.2;73.0
72226;BME280;60130;52.250;5.048;2023-08-01T16:30:00;1002.1;;;19.4;71.1
72226;BME280;60130;52.250;5.048;2023-08-01T16:35:00;1002.0;;;19.7;71.6
72226;BME280;60130;52.250;5.048;2023-08-01T16:40:00;1002.1;;;20.3;70.6
72226;BME280;60130;52.250;5.048;2023-08-01T16:45:00;1002.0;;;20.0;69.7
72226;BME280;60130;52.250;5.048;2023-08-01T16:50:00;1002.0;;;19.4;71.9
72226;BME280;60130;52.250;5.048;2023-08-01T16:55:00;1002.0;;;19.1;72.7
72226;BME280;60130;52.250;5.048;2023-08-01T17:00:00;1002.0;;;18.9;72.8
72226;BME280;60130;52.250;5.048;2023-08-01T17:05:00;1002.0;;;18.8;72.8
72226;BME280;60130;52.250;5.048;2023-08-01T17:10:02;1002.0;;;18.6;73.2
72226;BME280;60130;52.250;5.048;2023-08-01T17:15:00;1002.0;;;18.6;73.3
72226;BME280;60130;52.250;5.048;2023-08-01T17:20:00;1002.2;;;18.5;75.6
72226;BME280;60130;52.250;5.048;2023-08-01T17:25:00;1002.2;;;18.1;78.6
72226;BME280;60130;52.250;5.048;2023-08-01T17:30:01;1002.2;;;18.1;78.6
72226;BME280;60130;52.250;5.048;2023-08-01T17:35:00;1002.2;;;18.2;78.3
72226;BME280;60130;52.250;5.048;2023-08-01T17:40:00;1002.2;;;18.3;77.9
72226;BME280;60130;52.250;5.048;2023-08-01T17:45:00;1002.2;;;18.2;77.7
72226;BME280;60130;52.250;5.048;2023-08-01T17:50:00;1002.2;;;18.3;77.2
72226;BME280;60130;52.250;5.048;2023-08-01T17:55:00;1002.2;;;18.9;75.8
72226;BME280;60130;52.250;5.048;2023-08-01T18:00:00;1002.2;;;19.6;73.1
72226;BME280;60130;52.250;5.048;2023-08-01T18:05:00;1002.2;;;19.3;73.2
72226;BME280;60130;52.250;5.048;2023-08-01T18:10:00;1002.2;;;19.1;71.3
72226;BME280;60130;52.250;5.048;2023-08-01T18:15:00;1002.2;;;19.1;71.6
72226;BME280;60130;52.250;5.048;2023-08-01T18:20:00;1002.2;;;19.1;72.4
72226;BME280;60130;52.250;5.048;2023-08-01T18:25:00;1002.3;;;18.9;72.6
72226;BME280;60130;52.250;5.048;2023-08-01T18:30:00;1002.2;;;18.8;73.3
72226;BME280;60130;52.250;5.048;2023-08-01T18:35:00;1002.2;;;18.7;73.6
72226;BME280;60130;52.250;5.048;2023-08-01T18:40:00;1002.3;;;18.7;73.5
72226;BME280;60130;52.250;5.048;2023-08-01T18:45:00;1002.3;;;18.7;73.5
72226;BME280;60130;52.250;5.048;2023-08-01T18:50:00;1002.4;;;18.7;73.7
72226;BME280;60130;52.250;5.048;2023-08-01T18:55:00;1002.4;;;18.7;73.6
72226;BME280;60130;52.250;5.048;2023-08-01T19:00:00;1002.4;;;18.7;73.7
72226;BME280;60130;52.250;5.048;2023-08-01T19:05:03;1002.4;;;18.6;74.2
72226;BME280;60130;52.250;5.048;2023-08-01T19:10:00;1002.5;;;18.6;74.6
72226;BME280;60130;52.250;5.048;2023-08-01T19:15:00;1002.5;;;18.6;75.0
72226;BME280;60130;52.250;5.048;2023-08-01T19:20:00;1002.5;;;18.6;75.5
72226;BME280;60130;52.250;5.048;2023-08-01T19:25:00;1002.5;;;18.7;75.4
72226;BME280;60130;52.250;5.048;2023-08-01T19:30:00;1002.5;;;18.6;75.4
72226;BME280;60130;52.250;5.048;2023-08-01T19:35:00;1002.6;;;18.5;75.0
72226;BME280;60130;52.250;5.048;2023-08-01T19:40:00;1002.5;;;18.5;74.2
72226;BME280;60130;52.250;5.048;2023-08-01T19:45:00;1002.6;;;18.5;73.9
72226;BME280;60130;52.250;5.048;2023-08-01T19:50:00;1002.7;;;18.5;73.9
72226;BME280;60130;52.250;5.048;2023-08-01T19:55:00;1002.7;;;18.5;73.7
72226;BME280;60130;52.250;5.048;2023-08-01T20:00:00;1002.7;;;18.6;74.0
72226;BME280;60130;52.250;5.048;2023-08-01T20:05:00;1002.7;;;18.5;74.0
72226;BME280;60130;52.250;5.048;2023-08-01T20:10:00;1002.6;;;18.5;74.5
72226;BME280;60130;52.250;5.048;2023-08-01T20:15:01;1002.6;;;18.5;75.1
72226;BME280;60130;52.250;5.048;2023-08-01T20:20:00;1002.5;;;18.4;74.7
72226;BME280;60130;52.250;5.048;2023-08-01T20:25:00;1002.6;;;18.4;74.9
72226;BME280;60130;52.250;5.048;2023-08-01T20:30:00;1002.6;;;18.5;75.3
72226;BME280;60130;52.250;5.048;2023-08-01T20:35:01;1002.6;;;18.4;75.4
72226;BME280;60130;52.250;5.048;2023-08-01T20:40:00;1002.5;;;18.5;75.9
72226;BME280;60130;52.250;5.048;2023-08-01T20:45:00;1002.5;;;18.4;75.8
72226;BME280;60130;52.250;5.048;2023-08-01T20:50:00;1002.6;;;18.3;76.3
72226;BME280;60130;52.250;5.048;2023-08-01T20:55:00;1002.5;;;18.4;76.6
72226;BME280;60130;52.250;5.048;2023-08-01T21:00:00;1002.5;;;18.3;77.4
72226;BME280;60130;52.250;5.048;2023-08-01T21:05:00;1002.5;;;18.2;77.9
72226;BME280;60130;52.250;5.048;2023-08-01T21:10:00;1002.5;;;18.0;78.5
72226;BME280;60130;52.250;5.048;2023-08-01T21:15:00;1002.5;;;18.0;78.6
72226;BME280;60130;52.250;5.048;2023-08-01T21:20:00;1002.4;;;18.1;78.0
72226;BME280;60130;52.250;5.048;2023-08-01T21:25:00;1002.4;;;18.0;78.1
72226;BME280;60130;52.250;5.048;2023-08-01T21:30:00;1002.5;;;17.9;78.4
72226;BME280;60130;52.250;5.048;2023-08-01T21:35:00;1002.5;;;17.9;78.6
72226;BME280;60130;52.250;5.048;2023-08-01T21:40:00;1002.4;;;17.8;78.8
72226;BME280;60130;52.250;5.048;2023-08-01T21:45:00;1002.4;;;17.8;78.9
72226;BME280;60130;52.250;5.048;2023-08-01T21:50:00;1002.3;;;17.8;79.0
72226;BME280;60130;52.250;5.048;2023-08-01T21:55:00;1002.3;;;17.7;79.3
72226;BME280;60130;52.250;5.048;2023-08-01T22:00:00;1002.2;;;17.5;80.0
72226;BME280;60130;52.250;5.048;2023-08-01T22:05:00;1002.2;;;17.3;80.8
72226;BME280;60130;52.250;5.048;2023-08-01T22:10:00;1002.2;;;17.1;81.1
72226;BME280;60130;52.250;5.048;2023-08-01T22:15:00;1002.2;;;16.9;82.0
72226;BME280;60130;52.250;5.048;2023-08-01T22:20:00;1002.2;;;16.9;82.2
72226;BME280;60130;52.250;5.048;2023-08-01T22:25:00;1002.3;;;16.8;82.5
72226;BME280;60130;52.250;5.048;2023-08-01T22:30:00;1002.3;;;16.7;82.2
72226;BME280;60130;52.250;5.048;2023-08-01T22:35:00;1002.3;;;16.8;81.7
72226;BME280;60130;52.250;5.048;2023-08-01T22:40:00;1002.2;;;16.7;82.0
72226;BME280;60130;52.250;5.048;2023-08-01T22:45:00;1002.2;;;16.6;83.1
72226;BME280;60130;52.250;5.048;2023-08-01T22:50:00;1002.0;;;16.6;83.8
72226;BME280;60130;52.250;5.048;2023-08-01T22:55:00;1001.9;;;16.5;84.7
72226;BME280;60130;52.250;5.048;2023-08-01T23:00:00;1001.8;;;16.6;85.2
72226;BME280;60130;52.250;5.048;2023-08-01T23:05:00;1001.8;;;16.6;85.5
72226;BME280;60130;52.250;5.048;2023-08-01T23:10:02;1001.8;;;16.7;85.8
72226;BME280;60130;52.250;5.048;2023-08-01T23:15:00;1001.7;;;16.9;85.6
72226;BME280;60130;52.250;5.048;2023-08-01T23:20:00;1001.7;;;17.1;85.4
72226;BME280;60130;52.250;5.048;2023-08-01T23:25:00;1001.6;;;17.2;85.1
72226;BME280;60130;52.250;5.048;2023-08-01T23:30:00;1001.6;;;17.3;84.7
72226;BME280;60130;52.250;5.048;2023-08-01T23:35:00;1001.5;;;17.2;85.2
72226;BME280;60130;52.250;5.048;2023-08-01T23:40:00;1001.5;;;17.1;85.8
72226;BME280;60130;52.250;5.048;2023-08-01T23:45:00;1001.4;;;17.1;85.9
72226;BME280;60130;52.250;5.048;2023-08-01T23:50:00;1001.2;;;17.0;86.1
72226;BME280;60130;52.250;5.048;2023-08-01T23:55:00;1001.1;;;16.8;86.7
